Weather at Chhatrapati Shivaji International Airport

Public forecast

Using degrees Celsius for public forecast. Weather courtesy of forecast.io.

Current aviation weather report (METAR) for Chhatrapati Shivaji International Airport

Retrieved 2020/09/24 07:30 UTC (6 minutes ago):

VABB 240730Z 23009KT 5000 HZ SCT018 SCT025 BKN090 30/26 Q1007 NOSIG

Aviation forecast (TAF) for Chhatrapati Shivaji International Airport

Retrieved 2020/09/24 06:48 UTC (48 minutes ago):

TAF VABB 240500Z 2406/2512 28010KT 4000 -DZ HZ FEW018 SCT025 BKN100 TEMPO 2409/2418 1500 TSRA SHRA FEW012 FEW030TCU/CB BKN090 BECMG 2415/2417 21005KT 3000 -RA HZ BECMG 2422/2424 15005KT 2000 -DZ HZ TEMPO 2500/2506 1500 TSRA SHRA FEW012 FEW030TCU/CB BKN090 BECMG 2500/2502 VRB03KT 2500 BR HZ BECMG 2506/2508 27010KT 3000 HZ FEW018 SCT025 BKN090 TEMPO 2509/2512 1500 TSRA SHRA FEW018 FEW030TCU/CB BKN090